createdAt,value
2023-05-05T00:01:19.314Z,71.96
2023-05-05T00:03:46.056Z,71.87
2023-05-05T00:06:12.681Z,73.64
2023-05-05T00:08:39.162Z,74.06
2023-05-05T00:11:05.749Z,73.44
2023-05-05T00:13:32.333Z,73.97
2023-05-05T00:15:58.920Z,72.87
2023-05-05T00:18:25.526Z,73.98
2023-05-05T00:20:52.300Z,74.81
2023-05-05T00:23:19.908Z,75.11
2023-05-05T00:25:46.757Z,74.91
2023-05-05T00:28:14.326Z,74.20
2023-05-05T00:30:40.978Z,74.38
2023-05-05T00:33:07.734Z,74.87
2023-05-05T00:35:34.640Z,74.63
2023-05-05T00:38:01.272Z,74.65
2023-05-05T00:40:27.836Z,74.77
2023-05-05T00:42:54.444Z,74.87
2023-05-05T00:45:21.167Z,75.52
2023-05-05T00:48:01.362Z,76.18
2023-05-05T00:50:30.231Z,75.34
2023-05-05T00:53:00.928Z,75.37
2023-05-05T00:55:29.294Z,76.24
2023-05-05T00:57:57.143Z,76.33
2023-05-05T01:00:23.990Z,77.19
2023-05-05T01:02:51.922Z,77.77
2023-05-05T01:05:20.809Z,78.58
2023-05-05T01:08:03.045Z,77.73
2023-05-05T01:10:45.184Z,77.56
2023-05-05T01:13:24.627Z,77.13
2023-05-05T01:15:59.311Z,77.61
2023-05-05T01:18:37.113Z,76.97
2023-05-05T01:21:14.498Z,76.11
2023-05-05T01:24:07.261Z,76.28
2023-05-05T01:26:52.589Z,77.19
2023-05-05T01:29:47.136Z,75.87
2023-05-05T01:32:16.471Z,76.55
2023-05-05T01:34:53.682Z,75.84
2023-05-05T01:37:28.104Z,75.75
2023-05-05T01:39:59.538Z,76.07
2023-05-05T01:42:27.203Z,76.31
2023-05-05T01:44:54.496Z,76.45
2023-05-05T01:47:23.451Z,77.25
2023-05-05T01:49:51.401Z,77.23
2023-05-05T01:52:18.394Z,76.93
2023-05-05T01:54:46.604Z,77.55
2023-05-05T01:57:14.724Z,77.87
2023-05-05T01:59:41.287Z,78.25
2023-05-05T02:02:10.345Z,77.35
2023-05-05T02:04:41.825Z,75.64
2023-05-05T02:07:10.235Z,75.90
2023-05-05T02:09:37.960Z,75.76
2023-05-05T02:12:06.054Z,76.42
2023-05-05T02:14:34.633Z,76.43
2023-05-05T02:17:01.946Z,75.19
2023-05-05T02:19:39.732Z,75.06
2023-05-05T02:22:06.725Z,74.29
2023-05-05T02:24:33.977Z,73.90
2023-05-05T02:27:03.878Z,72.66
2023-05-05T02:29:36.922Z,71.91
2023-05-05T02:32:14.032Z,71.75
2023-05-05T02:34:42.843Z,70.06
2023-05-05T02:37:12.560Z,69.20
2023-05-05T02:40:19.534Z,68.64
2023-05-05T02:42:47.986Z,67.84
2023-05-05T02:45:20.068Z,67.92
2023-05-05T02:47:46.651Z,67.41
2023-05-05T02:50:13.315Z,67.78
2023-05-05T02:52:39.997Z,67.32
2023-05-05T02:55:07.261Z,67.74
2023-05-05T02:58:00.558Z,66.89
2023-05-05T03:00:53.554Z,70.52
2023-05-05T03:03:30.774Z,71.65
2023-05-05T03:06:06.728Z,71.46
2023-05-05T03:08:44.067Z,72.49
2023-05-05T03:11:26.186Z,72.64
2023-05-05T03:14:04.376Z,73.13
2023-05-05T03:16:35.158Z,73.06
2023-05-05T03:19:04.031Z,74.30
2023-05-05T03:21:32.524Z,74.16
2023-05-05T03:23:59.289Z,75.20
2023-05-05T03:26:25.863Z,75.70
2023-05-05T03:28:52.350Z,75.35
2023-05-05T03:31:18.992Z,76.05
2023-05-05T03:33:45.589Z,74.67
2023-05-05T03:36:12.143Z,75.84
2023-05-05T03:38:38.684Z,75.77
2023-05-05T03:41:05.283Z,75.62
2023-05-05T03:43:31.848Z,76.94
2023-05-05T03:45:58.392Z,77.48
2023-05-05T03:48:24.974Z,77.49
2023-05-05T03:50:51.884Z,78.27
2023-05-05T03:53:18.389Z,78.13
2023-05-05T03:55:44.914Z,77.73
2023-05-05T03:58:11.551Z,77.67
2023-05-05T04:00:38.124Z,77.34
2023-05-05T04:03:04.923Z,76.10
2023-05-05T04:05:31.574Z,75.88
2023-05-05T04:07:58.451Z,75.11
2023-05-05T04:10:25.179Z,74.71
2023-05-05T04:12:51.767Z,74.26
2023-05-05T04:15:18.350Z,74.22
2023-05-05T04:17:44.970Z,73.89
2023-05-05T04:20:11.736Z,73.29
2023-05-05T04:22:38.274Z,71.93
2023-05-05T04:25:05.361Z,71.06
2023-05-05T04:27:31.960Z,70.01
2023-05-05T04:29:58.842Z,69.08
2023-05-05T04:32:25.626Z,67.32
2023-05-05T04:34:52.212Z,67.16
2023-05-05T04:37:19.414Z,67.75
2023-05-05T04:39:46.545Z,67.22
2023-05-05T04:42:13.102Z,67.25
2023-05-05T04:44:39.622Z,67.16
2023-05-05T04:47:06.169Z,67.35
2023-05-05T04:49:32.808Z,67.29
2023-05-05T04:51:59.352Z,65.66
2023-05-05T04:54:26.016Z,64.45
2023-05-05T04:56:52.726Z,64.19
2023-05-05T04:59:19.309Z,64.36
2023-05-05T05:01:46.469Z,64.13
2023-05-05T05:04:13.786Z,62.83
2023-05-05T05:06:40.340Z,63.39
2023-05-05T05:09:06.917Z,63.59
2023-05-05T05:11:33.508Z,63.69
2023-05-05T05:14:00.064Z,63.27
2023-05-05T05:16:26.871Z,62.85
2023-05-05T05:18:53.491Z,62.97
2023-05-05T05:21:20.310Z,62.61
2023-05-05T05:23:47.328Z,63.38
2023-05-05T05:26:13.914Z,62.67
2023-05-05T05:28:41.645Z,62.63
2023-05-05T05:31:08.162Z,63.11
2023-05-05T05:33:34.718Z,63.30
2023-05-05T05:36:01.394Z,62.09
2023-05-05T05:38:27.928Z,62.91
2023-05-05T05:40:54.622Z,61.92
2023-05-05T05:43:21.282Z,60.88
2023-05-05T05:45:47.998Z,59.83
2023-05-05T05:48:14.591Z,60.49
2023-05-05T05:50:41.676Z,61.16
2023-05-05T05:53:08.241Z,60.39
2023-05-05T05:55:34.877Z,61.13
2023-05-05T05:58:01.432Z,61.45
2023-05-05T06:00:27.988Z,61.15
2023-05-05T06:02:54.610Z,60.93
2023-05-05T06:05:21.259Z,60.88
2023-05-05T06:07:47.820Z,60.13
2023-05-05T06:10:26.466Z,61.07
2023-05-05T06:12:54.717Z,60.48
2023-05-05T06:15:21.344Z,59.34
2023-05-05T06:17:48.114Z,58.55
2023-05-05T06:20:14.910Z,58.56
2023-05-05T06:22:41.486Z,58.98
2023-05-05T06:25:08.347Z,58.72
2023-05-05T06:27:35.193Z,59.09
2023-05-05T06:30:01.773Z,58.02
2023-05-05T06:32:28.325Z,58.47
2023-05-05T06:34:54.833Z,59.36
2023-05-05T06:37:22.508Z,58.11
2023-05-05T06:39:49.103Z,57.76
2023-05-05T06:42:15.674Z,57.76
2023-05-05T06:44:42.200Z,58.79
2023-05-05T06:47:08.770Z,57.71
2023-05-05T06:49:35.293Z,57.40
2023-05-05T06:52:01.937Z,57.60
2023-05-05T06:54:28.480Z,57.71
2023-05-05T06:56:55.043Z,56.71
2023-05-05T06:59:21.590Z,56.11
2023-05-05T07:01:48.145Z,55.99
2023-05-05T07:04:14.802Z,56.62
2023-05-05T07:06:41.378Z,55.67
2023-05-05T07:09:07.931Z,55.32
2023-05-05T07:11:34.441Z,55.55
2023-05-05T07:14:01.007Z,55.76
2023-05-05T07:16:28.007Z,56.57
2023-05-05T07:18:54.587Z,56.19
2023-05-05T07:21:21.374Z,55.43
2023-05-05T07:23:47.971Z,55.08
2023-05-05T07:26:15.442Z,54.97
2023-05-05T07:28:43.167Z,54.36
2023-05-05T07:31:09.871Z,54.55
2023-05-05T07:33:36.477Z,54.24
2023-05-05T07:36:03.296Z,53.90
2023-05-05T07:38:29.890Z,54.45
2023-05-05T07:40:56.365Z,53.48
2023-05-05T07:43:22.938Z,53.58
2023-05-05T07:45:49.704Z,54.47
2023-05-05T07:48:16.283Z,54.49
2023-05-05T07:50:42.848Z,53.78
2023-05-05T07:53:14.654Z,53.17
2023-05-05T07:55:41.967Z,53.25
2023-05-05T07:58:08.653Z,51.88
2023-05-05T08:00:35.649Z,58.32
2023-05-05T08:03:02.304Z,50.42
2023-05-05T08:05:28.879Z,51.09
2023-05-05T08:07:57.307Z,50.69
2023-05-05T08:10:23.865Z,50.74
2023-05-05T08:12:51.978Z,50.83
2023-05-05T08:15:18.622Z,50.45
2023-05-05T08:18:01.606Z,50.18
2023-05-05T08:20:29.129Z,49.73
2023-05-05T08:22:58.661Z,50.33
2023-05-05T08:25:27.045Z,50.10
2023-05-05T08:27:54.138Z,49.67
2023-05-05T08:30:23.548Z,48.88
2023-05-05T08:32:51.439Z,48.27
2023-05-05T08:35:18.198Z,48.50
2023-05-05T08:37:45.009Z,47.95
2023-05-05T08:40:14.169Z,47.37
2023-05-05T08:42:41.586Z,46.54
2023-05-05T08:45:09.406Z,44.83
2023-05-05T08:47:37.869Z,44.09
2023-05-05T08:50:05.963Z,44.00
2023-05-05T08:52:40.317Z,43.06
2023-05-05T08:55:28.650Z,43.45
2023-05-05T08:57:57.401Z,42.87
2023-05-05T09:00:26.511Z,42.29
2023-05-05T09:02:58.397Z,43.21
2023-05-05T09:05:28.776Z,43.33
2023-05-05T09:07:55.388Z,41.96
2023-05-05T09:10:22.056Z,42.97
2023-05-05T09:12:51.162Z,42.58
2023-05-05T09:15:17.870Z,42.49
2023-05-05T09:17:44.526Z,41.86
2023-05-05T09:20:15.295Z,42.15
2023-05-05T09:22:44.913Z,41.86
2023-05-05T09:25:16.023Z,41.12
2023-05-05T09:27:46.145Z,39.13
2023-05-05T09:30:16.683Z,38.41
2023-05-05T09:32:44.097Z,38.98
2023-05-05T09:35:10.719Z,39.74
2023-05-05T09:37:38.614Z,40.40
2023-05-05T09:40:06.870Z,39.66
2023-05-05T09:42:34.410Z,40.44
2023-05-05T09:45:01.106Z,40.22
2023-05-05T09:47:35.550Z,38.75
2023-05-05T09:50:06.016Z,39.07
2023-05-05T09:52:32.877Z,40.05
2023-05-05T09:54:59.481Z,40.05
2023-05-05T09:57:34.171Z,39.93
2023-05-05T10:00:02.637Z,39.61
2023-05-05T10:02:38.499Z,38.49
2023-05-05T10:05:15.669Z,39.43
2023-05-05T10:07:44.755Z,38.06
2023-05-05T10:10:14.136Z,38.68
2023-05-05T10:12:42.222Z,38.24
2023-05-05T10:15:11.478Z,37.72
2023-05-05T10:18:05.191Z,36.54
2023-05-05T10:20:36.523Z,36.38
2023-05-05T10:23:07.017Z,34.76
2023-05-05T10:25:42.154Z,34.42
2023-05-05T10:28:16.634Z,33.91
2023-05-05T10:30:46.079Z,34.66
2023-05-05T10:33:31.588Z,34.23
2023-05-05T10:36:05.339Z,33.20
2023-05-05T10:38:33.759Z,32.89
2023-05-05T10:41:02.164Z,33.30
2023-05-05T10:43:31.031Z,33.33
2023-05-05T10:45:58.647Z,32.11
2023-05-05T10:48:56.700Z,33.21
2023-05-05T10:52:00.652Z,32.54
2023-05-05T10:54:48.953Z,33.07
2023-05-05T10:57:18.764Z,32.48
2023-05-05T10:59:46.590Z,32.37
2023-05-05T11:02:27.359Z,31.38
2023-05-05T11:05:03.257Z,31.08
2023-05-05T11:07:29.840Z,30.87
2023-05-05T11:10:03.486Z,30.34
2023-05-05T11:12:31.593Z,30.75
2023-05-05T11:15:29.765Z,32.39
2023-05-05T11:17:57.675Z,30.68
2023-05-05T11:20:43.590Z,29.76
2023-05-05T11:23:10.254Z,29.53
2023-05-05T11:25:41.172Z,30.63
2023-05-05T11:28:11.963Z,29.83
2023-05-05T11:31:04.895Z,29.55
2023-05-05T11:33:33.153Z,31.06
2023-05-05T11:36:03.448Z,30.11
2023-05-05T11:38:40.843Z,29.65
2023-05-05T11:41:15.508Z,28.50
2023-05-05T11:43:42.340Z,29.72
2023-05-05T11:46:19.347Z,28.53
2023-05-05T11:48:52.817Z,29.35
2023-05-05T11:51:19.476Z,30.03
2023-05-05T11:53:47.771Z,30.97
2023-05-05T11:56:22.376Z,29.64
2023-05-05T11:58:49.872Z,29.44
2023-05-05T12:01:16.713Z,29.10
2023-05-05T12:03:45.609Z,28.43
2023-05-05T12:06:13.197Z,28.21
2023-05-05T12:08:40.772Z,28.25
2023-05-05T12:11:09.968Z,28.99
2023-05-05T12:13:36.848Z,30.05
2023-05-05T12:16:14.367Z,30.46
2023-05-05T12:18:41.687Z,29.01
2023-05-05T12:21:21.955Z,29.19
2023-05-05T12:23:48.551Z,29.85
2023-05-05T12:26:31.857Z,30.02
2023-05-05T12:29:00.344Z,29.26
2023-05-05T12:31:41.610Z,28.61
2023-05-05T12:34:10.254Z,28.24
2023-05-05T12:36:37.652Z,27.80
2023-05-05T12:39:05.394Z,27.91
2023-05-05T12:41:32.584Z,27.87
2023-05-05T12:44:00.314Z,26.81
2023-05-05T12:46:29.624Z,26.92
2023-05-05T12:49:05.120Z,27.45
2023-05-05T12:51:33.248Z,29.37
2023-05-05T12:54:05.242Z,26.42
2023-05-05T12:56:32.597Z,25.75
2023-05-05T12:58:59.641Z,26.03
2023-05-05T13:01:26.247Z,25.42
2023-05-05T13:04:08.381Z,27.06
2023-05-05T13:06:35.965Z,26.39
2023-05-05T13:09:02.680Z,24.71
2023-05-05T13:11:29.383Z,24.20
2023-05-05T13:13:56.543Z,23.42
2023-05-05T13:16:23.191Z,24.65
2023-05-05T13:18:50.565Z,25.45
2023-05-05T13:21:17.182Z,26.50
2023-05-05T13:23:44.817Z,24.50
2023-05-05T13:26:14.647Z,25.01
2023-05-05T13:28:41.610Z,25.32
2023-05-05T13:31:08.443Z,25.83
2023-05-05T13:33:35.291Z,24.11
2023-05-05T13:36:04.903Z,24.88
2023-05-05T13:38:33.104Z,25.10
2023-05-05T13:41:00.092Z,24.94
2023-05-05T13:43:26.710Z,27.04
2023-05-05T13:45:53.591Z,25.84
2023-05-05T13:48:20.528Z,25.23
2023-05-05T13:50:47.363Z,25.82
2023-05-05T13:53:16.768Z,26.20
2023-05-05T13:55:43.367Z,24.56
2023-05-05T13:58:10.420Z,25.24
2023-05-05T14:00:37.849Z,24.80
2023-05-05T14:03:04.705Z,24.55
2023-05-05T14:05:31.312Z,24.29
2023-05-05T14:07:59.584Z,25.56
2023-05-05T14:10:29.685Z,24.84
2023-05-05T14:12:56.766Z,24.63
2023-05-05T14:15:23.348Z,23.29
2023-05-05T14:17:49.989Z,22.21
2023-05-05T14:20:16.589Z,23.85
2023-05-05T14:22:43.295Z,24.99
2023-05-05T14:25:10.067Z,24.36
2023-05-05T14:27:36.751Z,23.34
2023-05-05T14:30:04.858Z,22.71
2023-05-05T14:32:31.443Z,23.66
2023-05-05T14:34:58.038Z,23.21
2023-05-05T14:37:24.575Z,24.80
2023-05-05T14:39:51.090Z,24.01
2023-05-05T14:42:17.690Z,25.00
2023-05-05T14:44:44.203Z,24.69
2023-05-05T14:47:10.903Z,24.52
2023-05-05T14:49:37.441Z,24.45
2023-05-05T14:52:04.127Z,24.54
2023-05-05T14:54:30.672Z,24.07
2023-05-05T14:56:58.323Z,24.26
2023-05-05T14:59:24.928Z,25.24
2023-05-05T15:01:51.554Z,24.59
2023-05-05T15:04:18.115Z,25.17
2023-05-05T15:06:44.662Z,25.89
2023-05-05T15:09:11.202Z,26.42
2023-05-05T15:11:38.064Z,27.00
2023-05-05T15:14:04.659Z,26.29
2023-05-05T15:16:32.656Z,27.59
2023-05-05T15:19:01.083Z,25.79
2023-05-05T15:21:28.081Z,25.58
2023-05-05T15:23:57.345Z,24.97
2023-05-05T15:26:24.059Z,25.90
2023-05-05T15:28:52.792Z,25.63
2023-05-05T15:31:19.330Z,25.70
2023-05-05T15:33:48.452Z,25.06
2023-05-05T15:36:15.072Z,25.12
2023-05-05T15:38:44.962Z,24.12
2023-05-05T15:41:11.542Z,24.56
2023-05-05T15:43:38.104Z,24.34
2023-05-05T15:46:04.673Z,25.06
2023-05-05T15:48:31.303Z,25.20
2023-05-05T15:50:57.885Z,27.63
2023-05-05T15:53:26.143Z,27.63
2023-05-05T15:55:52.980Z,27.67
2023-05-05T15:58:19.699Z,27.63
2023-05-05T16:00:46.361Z,27.64
2023-05-05T16:03:12.982Z,28.01
2023-05-05T16:05:39.584Z,27.96
2023-05-05T16:08:09.702Z,26.51
2023-05-05T16:10:39.273Z,27.84
2023-05-05T16:13:05.912Z,28.45
2023-05-05T16:15:32.503Z,27.87
2023-05-05T16:17:59.088Z,27.90
2023-05-05T16:20:25.833Z,28.48
2023-05-05T16:22:52.377Z,28.43
2023-05-05T16:25:19.845Z,28.94
2023-05-05T16:27:46.493Z,29.43
2023-05-05T16:30:15.371Z,28.68
2023-05-05T16:32:43.328Z,28.97
2023-05-05T16:35:11.822Z,28.51
2023-05-05T16:37:38.540Z,29.55
2023-05-05T16:40:06.611Z,28.91
2023-05-05T16:42:33.143Z,29.11
2023-05-05T16:44:59.708Z,28.94
2023-05-05T16:47:27.247Z,29.13
2023-05-05T16:49:53.896Z,29.73
2023-05-05T16:52:20.498Z,30.45
2023-05-05T16:54:48.054Z,30.84
2023-05-05T16:57:14.632Z,31.14
2023-05-05T16:59:43.783Z,31.70
2023-05-05T17:02:10.376Z,31.76
2023-05-05T17:04:38.885Z,31.88
2023-05-05T17:07:05.822Z,32.57
2023-05-05T17:09:32.392Z,32.62
2023-05-05T17:11:58.921Z,32.70
2023-05-05T17:14:27.269Z,32.66
2023-05-05T17:16:54.537Z,33.85
2023-05-05T17:19:21.175Z,31.92
2023-05-05T17:21:47.745Z,31.74
2023-05-05T17:24:14.278Z,32.39
2023-05-05T17:26:41.470Z,33.00
2023-05-05T17:29:08.726Z,33.90
2023-05-05T17:31:36.200Z,33.67
2023-05-05T17:34:02.821Z,33.53
2023-05-05T17:36:29.494Z,33.36
2023-05-05T17:38:59.126Z,33.88
2023-05-05T17:41:26.028Z,33.95
2023-05-05T17:43:52.917Z,34.56
2023-05-05T17:46:19.646Z,34.49
2023-05-05T17:48:46.378Z,34.76
2023-05-05T17:51:13.055Z,35.18
2023-05-05T17:53:39.656Z,35.26
2023-05-05T17:56:08.689Z,35.85
2023-05-05T17:58:35.725Z,37.29
2023-05-05T18:01:02.630Z,37.36
2023-05-05T18:03:29.643Z,36.75
2023-05-05T18:05:56.306Z,37.03
2023-05-05T18:08:25.864Z,36.53
2023-05-05T18:10:53.777Z,36.89
2023-05-05T18:13:21.460Z,36.72
2023-05-05T18:15:48.069Z,37.04
2023-05-05T18:18:14.765Z,36.98
2023-05-05T18:20:44.065Z,37.63
2023-05-05T18:23:11.190Z,37.80
2023-05-05T18:25:37.960Z,38.21
2023-05-05T18:28:05.022Z,38.05
2023-05-05T18:30:32.580Z,39.80
2023-05-05T18:32:59.306Z,40.52
2023-05-05T18:35:26.074Z,41.40
2023-05-05T18:37:54.434Z,41.62
2023-05-05T18:40:22.387Z,42.58
2023-05-05T18:42:49.317Z,43.40
2023-05-05T18:45:16.105Z,42.90
2023-05-05T18:47:48.677Z,43.66
2023-05-05T18:50:15.344Z,43.67
2023-05-05T18:52:42.575Z,44.02
2023-05-05T18:55:09.430Z,44.36
2023-05-05T18:57:36.144Z,43.95
2023-05-05T19:00:03.160Z,45.04
2023-05-05T19:02:29.834Z,44.81
2023-05-05T19:04:56.530Z,44.65
2023-05-05T19:10:10.699Z,44.98
2023-05-05T19:12:37.290Z,45.37
2023-05-05T19:15:04.107Z,45.70
2023-05-05T19:17:31.531Z,45.81
2023-05-05T19:20:01.219Z,45.53
2023-05-05T19:22:27.839Z,45.43
2023-05-05T19:24:54.384Z,46.24
2023-05-05T19:27:21.633Z,45.96
2023-05-05T19:29:52.650Z,46.14
2023-05-05T19:32:21.035Z,46.50
2023-05-05T19:34:48.053Z,45.83
2023-05-05T19:37:17.554Z,46.56
2023-05-05T19:39:45.706Z,46.80
2023-05-05T19:42:12.648Z,44.97
2023-05-05T19:44:42.562Z,45.74
2023-05-05T19:47:10.892Z,46.55
2023-05-05T19:49:38.090Z,47.18
2023-05-05T19:52:04.927Z,46.97
2023-05-05T19:54:31.614Z,47.67
2023-05-05T19:56:58.388Z,47.71
2023-05-05T19:59:24.961Z,46.93
2023-05-05T20:01:51.669Z,48.24
2023-05-05T20:04:18.564Z,48.08
2023-05-05T20:06:45.238Z,47.63
2023-05-05T20:09:11.932Z,47.95
2023-05-05T20:11:38.483Z,47.04
2023-05-05T20:14:06.198Z,47.17
2023-05-05T20:16:33.595Z,47.17
2023-05-05T20:19:00.305Z,46.74
2023-05-05T20:21:27.382Z,46.22
2023-05-05T20:23:56.553Z,47.13
2023-05-05T20:26:24.387Z,47.13
2023-05-05T20:28:51.152Z,47.50
2023-05-05T20:31:17.895Z,47.61
2023-05-05T20:33:44.639Z,49.46
2023-05-05T20:36:11.464Z,49.07
2023-05-05T20:38:38.023Z,49.11
2023-05-05T20:41:04.636Z,48.67
2023-05-05T20:43:31.315Z,50.50
2023-05-05T20:45:57.866Z,51.42
2023-05-05T20:48:24.411Z,52.03
2023-05-05T20:50:51.299Z,51.04
2023-05-05T20:53:19.177Z,52.08
2023-05-05T20:55:45.954Z,51.96
2023-05-05T20:58:12.906Z,51.91
2023-05-05T21:00:39.678Z,52.05
2023-05-05T21:03:06.375Z,52.38
2023-05-05T21:05:33.010Z,52.40
2023-05-05T21:08:01.132Z,52.56
2023-05-05T21:10:29.080Z,53.11
2023-05-05T21:12:55.887Z,53.08
2023-05-05T21:15:31.241Z,52.83
2023-05-05T21:18:01.703Z,52.90
2023-05-05T21:20:28.690Z,52.44
2023-05-05T21:23:04.020Z,52.84
2023-05-05T21:25:31.499Z,51.95
2023-05-05T21:28:04.223Z,52.09
2023-05-05T21:30:31.499Z,51.58
2023-05-05T21:32:58.198Z,51.72
2023-05-05T21:35:24.746Z,52.06
2023-05-05T21:37:51.448Z,51.70
2023-05-05T21:40:17.996Z,52.33
2023-05-05T21:42:44.685Z,52.14
2023-05-05T21:45:14.174Z,51.81
2023-05-05T21:47:40.808Z,51.80
2023-05-05T21:50:08.366Z,51.99
2023-05-05T21:52:38.286Z,51.65
2023-05-05T21:55:05.698Z,52.12
2023-05-05T21:57:32.329Z,52.07
2023-05-05T21:59:58.967Z,50.79
2023-05-05T22:02:28.889Z,52.25
2023-05-05T22:04:55.607Z,53.88
2023-05-05T22:07:22.393Z,53.64
2023-05-05T22:09:49.021Z,53.10
2023-05-05T22:12:16.390Z,54.08
2023-05-05T22:14:42.967Z,54.58
2023-05-05T22:17:10.051Z,54.68
2023-05-05T22:19:36.651Z,53.97
2023-05-05T22:22:04.418Z,54.82
2023-05-05T22:24:32.149Z,55.55
2023-05-05T22:27:00.212Z,55.05
2023-05-05T22:29:27.583Z,56.20
2023-05-05T22:31:54.192Z,55.70
2023-05-05T22:34:22.222Z,56.69
2023-05-05T22:36:49.108Z,58.32
2023-05-05T22:39:15.929Z,59.16
2023-05-05T22:41:42.601Z,60.14
2023-05-05T22:44:09.283Z,61.00
2023-05-05T22:46:36.029Z,60.43
2023-05-05T22:49:02.674Z,60.97
2023-05-05T22:51:29.452Z,60.59
2023-05-05T22:53:56.019Z,60.34
2023-05-05T22:56:22.598Z,58.59
2023-05-05T22:58:49.138Z,59.67
2023-05-05T23:01:15.708Z,61.97
2023-05-05T23:03:42.280Z,64.45
2023-05-05T23:06:09.847Z,67.97
2023-05-05T23:08:36.361Z,66.63
2023-05-05T23:11:02.907Z,70.04
2023-05-05T23:13:29.561Z,71.70
2023-05-05T23:15:56.079Z,72.64
2023-05-05T23:18:22.648Z,67.31
2023-05-05T23:20:49.212Z,64.96
2023-05-05T23:23:15.795Z,65.23
2023-05-05T23:25:42.344Z,68.48
2023-05-05T23:28:08.928Z,68.76
2023-05-05T23:30:35.834Z,71.01
2023-05-05T23:33:03.686Z,69.63
2023-05-05T23:35:30.432Z,71.99
2023-05-05T23:37:56.963Z,72.90
2023-05-05T23:40:23.593Z,73.88
2023-05-05T23:42:50.256Z,74.11
2023-05-05T23:45:19.154Z,71.99
2023-05-05T23:47:46.028Z,74.92
2023-05-05T23:50:12.606Z,74.68
2023-05-05T23:52:39.163Z,80.44
2023-05-05T23:55:06.767Z,83.07
2023-05-05T23:57:35.590Z,83.04
